aviador You're here:

OEJN Decoded Metar

JEDDAH in SAUDI ARABIA
Report Time2017-12-17 00:00:00
UTC Time2017-12-17 00:22:48
Flight Rules vfr VFR
Wind070° at 12 kt
W.Decomp.*RWY 34: 0.6 kt HW 12.0 kt RCW
W.Rank070° ranks 31
Current wind is above 070° avg. (7.3)
Visibility9999 m
Phenomena:N/A
Clouds:N/A
Expected CloudBase > 9,600 ft AGL from Temp-Dew spread
CeilingNone
Temp25°C (ISA +10)
Dew Point01°C (21% RH)
AAT18.9°C
QNH1016 hPa
Density Alt1,214 ft
Elevation49 ft
Report Wrong Elevation
Raw Report
METAR OEJN 170000Z 07012KT CAVOK 25/01 Q1016 NOSIG=

Extra information for OEJN:More info

Metar Taf Metar & Taf Last 4 Metars F.Rules Stats Wind Profile Meteogram Temp Stats Airport Information Weather charts Add Link Nearby VenuesMetar ALERT Operation Metar Decoded Social comments